This demonstration page uses our WeatherBlox Daily Observations layout. Learn more.

39.01783, -85.05884

Hourly Observations for June 2, 2019

Temp ( °F °C ) Dew Point ( °F °C ) Humidity (%) Winds ( mph kmh ) Pressure ( in mb ) Visibility ( mi km ) Precip ( " mm )
12:52 am 00:52 Mostly Clear 68 20 60 15.6 76 76 SW 6 9 29.77 1008 10 16.09344 0 0
1:52 am 01:52 Clear 67 19.4 59 15 76 76 SSW 5 7 29.77 1008 10 16.09344 0 0
2:52 am 02:52 Mostly Clear 67 19.4 59 15 76 76 SSW 5 7 29.74 1007 10 16.09344 0 0
3:52 am 03:52 Mostly Clear 66 18.9 59 15 78 78 SSW 6 9 29.74 1007 10 16.09344 0 0
4:52 am 04:52 Mostly Cloudy 67 19.4 59 15 76 76 NNW 8 13 29.74 1007 10 16.09344 0 0
5:52 am 05:52 Mostly Cloudy 63 17.2 59 15 87 87 Calm 29.77 1008 10 16.09344 0 0
6:52 am 06:52 Mostly Cloudy 64 17.8 60 15.6 87 87 SSW 3 6 29.77 1008 9 14.484096 0 0
7:52 am 07:52 Mostly Cloudy 67 19.4 61 16.1 81 81 Calm 29.77 1008 10 16.09344 0 0
8:52 am 08:52 Partly Cloudy 70 21.1 62 16.7 76 76 W 8 13 29.77 1008 10 16.09344 0 0
9:52 am 09:52 Mostly Sunny 73 22.8 63 17.2 71 71 W 10 17 29.77 1008 10 16.09344 0 0
10:52 am 10:52 Partly Cloudy 74 23.3 64 17.8 71 71 WNW 8 13 29.8 1009 10 16.09344 0 0
11:52 am 11:52 Mostly Cloudy 78 25.6 63 17.2 60 60 NNW 12 19 29.8 1009 10 16.09344 0 0
12:52 pm 12:52 Mostly Cloudy 79 26.1 60 15.6 52 52 NW 13 20 29.8 1009 10 16.09344 0 0
1:52 pm 13:52 Mostly Cloudy 80 26.7 57 13.9 45 45 WNW 14 22 29.8 1009 10 16.09344 0 0
2:52 pm 14:52 Mostly Cloudy 79 26.1 56 13.3 45 45 NNW 20 31 29.8 1009 10 16.09344 0 0
3:52 pm 15:52 Mostly Sunny 80 26.7 53 11.7 39 39 NW 16 26 29.8 1009 10 16.09344 0 0
4:52 pm 16:52 Mostly Sunny 79 26.1 52 11.1 39 39 NNW 22 35 29.83 1010 10 16.09344 0 0
5:52 pm 17:52 Mostly Sunny 78 25.6 50 10 37 37 NW 18 30 29.83 1010 10 16.09344 0 0
6:52 pm 18:52 Mostly Sunny 76 24.4 48 8.9 37 37 NNW 13 20 29.85 1011 10 16.09344 0 0
8:52 pm 20:52 Mostly Sunny 70 21.1 49 9.4 47 47 NNW 7 11 29.88 1012 10 16.09344 0 0
9:52 pm 21:52 Clear 68 20 50 10 53 53 NNW 14 22 29.91 1013 10 16.09344 0 0
10:52 pm 22:52 Clear 66 18.9 48 8.9 52 52 N 15 24 29.94 1014 10 16.09344 0 0
11:52 pm 23:52 Clear 62 16.7 40 4.4 44 44 N 13 20 29.97 1015 10 16.09344 0 0

Powered by AerisWeather